Time;durP1;ratioP1;P1;durP2;ratioP2;P2;SDS_P1;SDS_P2;PMS_P1;PMS_P2;Temp;Humidity;BMP_temperature;BMP_pressure;BME280_temperature;BME280_humidity;BME280_pressure;Samples;Min_cycle;Max_cycle;Signal;HPM_P1;HPM_P2
2022/11/18 00:02:15;;;;;;;9.75;3.67;;;;;;;5.46;94.73;99518.19;5017927;28;20076;-71
2022/11/18 00:04:41;;;;;;;6.75;2.80;;;;;;;5.46;94.65;99506.75;5018626;28;20567;-71
2022/11/18 00:07:06;;;;;;;6.80;3.63;;;;;;;5.52;94.54;99516.03;5011386;28;20032;-71
2022/11/18 00:09:32;;;;;;;7.22;2.92;;;;;;;5.65;94.08;99514.03;5008001;28;20105;-71
2022/11/18 00:14:41;;;;;;;7.57;3.30;;;;;;;5.55;93.87;99522.59;5003707;28;20037;-71
2022/11/18 00:17:07;;;;;;;5.38;3.00;;;;;;;5.39;94.56;99520.72;5007166;28;20363;-71
2022/11/18 00:19:35;;;;;;;9.52;4.40;;;;;;;5.48;94.40;99517.84;4992720;28;20038;-71
2022/11/18 00:22:01;;;;;;;8.40;4.00;;;;;;;5.26;94.41;99524.63;5010197;28;20048;-71
2022/11/18 00:24:27;;;;;;;9.35;4.32;;;;;;;5.31;94.72;99520.91;5009048;28;20084;-71
2022/11/18 00:26:53;;;;;;;5.05;2.88;;;;;;;5.37;94.54;99532.88;4991546;28;20026;-71
2022/11/18 00:29:20;;;;;;;5.70;3.25;;;;;;;5.28;94.64;99525.03;5010162;28;20062;-71
2022/11/18 00:31:45;;;;;;;5.95;3.40;;;;;;;5.41;93.99;99534.50;5006230;28;20080;-71
2022/11/18 00:34:14;;;;;;;12.00;5.20;;;;;;;5.29;94.53;99528.47;5005555;28;20137;-71
2022/11/18 00:36:40;;;;;;;5.95;3.60;;;;;;;5.46;94.67;99528.09;5018170;28;20100;-71
2022/11/18 00:39:06;;;;;;;7.22;3.35;;;;;;;5.34;94.52;99525.56;5007214;28;20040;-71
2022/11/18 00:44:16;;;;;;;6.70;3.20;;;;;;;5.56;93.61;99530.22;5014471;28;20088;-71
2022/11/18 00:46:41;;;;;;;6.10;3.42;;;;;;;5.39;93.30;99534.06;5010301;28;20049;-71
2022/11/18 00:49:08;;;;;;;8.43;3.50;;;;;;;5.34;94.26;99531.66;5010695;28;20487;-71
2022/11/18 00:51:34;;;;;;;10.70;3.95;;;;;;;5.44;94.97;99547.13;5009209;28;20042;-71
2022/11/18 00:54:00;;;;;;;9.40;4.32;;;;;;;5.39;94.14;99544.75;5016180;28;20041;-71
2022/11/18 00:56:25;;;;;;;5.78;3.08;;;;;;;5.44;94.00;99538.34;5001539;28;20036;-71
2022/11/18 00:58:50;;;;;;;7.05;3.70;;;;;;;5.50;94.02;99552.97;5005552;28;20334;-71
2022/11/18 01:01:16;;;;;;;8.50;4.03;;;;;;;5.41;93.74;99555.06;5009167;28;20125;-71
2022/11/18 01:03:41;;;;;;;4.95;2.80;;;;;;;5.42;94.26;99543.25;5009114;28;20033;-71
2022/11/18 01:06:07;;;;;;;5.93;3.45;;;;;;;5.40;93.75;99556.22;5020589;28;20080;-71
2022/11/18 01:08:33;;;;;;;8.55;3.83;;;;;;;5.26;93.60;99545.19;5009575;28;20494;-71
2022/11/18 01:13:18;;;;;;;9.57;3.80;;;;;;;5.23;94.20;99561.88;5024826;28;20030;-71
2022/11/18 01:13:44;;;;;;;10.80;3.97;;;;;;;5.28;93.85;99558.97;5013782;28;20037;-71
2022/11/18 01:16:09;;;;;;;9.40;3.42;;;;;;;5.34;94.47;99555.69;5016267;28;20042;-71
2022/11/18 01:18:35;;;;;;;7.07;3.78;;;;;;;5.36;93.80;99561.44;5022871;28;20041;-71
2022/11/18 01:21:02;;;;;;;6.50;3.20;;;;;;;5.05;94.44;99566.78;5012957;28;20117;-71
2022/11/18 01:23:28;;;;;;;7.47;3.67;;;;;;;5.01;95.54;99568.63;5010537;28;20049;-71
2022/11/18 01:25:53;;;;;;;11.88;4.07;;;;;;;4.97;94.79;99567.78;5011598;28;20076;-71
2022/11/18 01:28:18;;;;;;;10.15;3.50;;;;;;;4.97;95.32;99565.09;5009020;28;20037;-71
2022/11/18 01:30:44;;;;;;;9.18;4.97;;;;;;;5.12;94.56;99560.88;5009402;28;20026;-71
2022/11/18 01:33:10;;;;;;;7.97;3.88;;;;;;;5.18;94.55;99570.94;5010200;28;20042;-71
2022/11/18 01:35:42;;;;;;;11.43;4.45;;;;;;;4.87;93.96;99568.28;5007928;28;20478;-71
2022/11/18 01:38:10;;;;;;;10.25;4.13;;;;;;;5.04;95.19;99569.81;5023853;28;20025;-71
2022/11/18 01:40:36;;;;;;;9.73;3.50;;;;;;;5.09;95.03;99562.31;5009916;28;20172;-71
2022/11/18 01:43:04;;;;;;;7.78;4.00;;;;;;;5.07;94.22;99572.56;5014468;28;20120;-71
2022/11/18 01:45:37;;;;;;;5.28;3.58;;;;;;;5.03;93.96;99570.94;5017398;28;20087;-71
2022/11/18 01:48:09;;;;;;;9.45;5.32;;;;;;;5.01;94.60;99573.19;5018655;28;20030;-71
2022/11/18 01:50:43;;;;;;;8.27;3.70;;;;;;;4.92;94.29;99573.34;5020274;28;20474;-72
2022/11/18 01:53:14;;;;;;;11.23;4.78;;;;;;;5.00;94.22;99572.41;5028992;28;20046;-71
2022/11/18 01:55:45;;;;;;;11.15;5.05;;;;;;;4.85;94.30;99575.06;5033131;28;20034;-71
2022/11/18 01:58:17;;;;;;;9.90;4.55;;;;;;;4.88;94.58;99583.16;5020689;28;20045;-71
2022/11/18 02:00:42;;;;;;;9.50;4.10;;;;;;;4.99;94.16;99583.41;5014020;28;20033;-71
2022/11/18 02:03:08;;;;;;;12.15;5.22;;;;;;;5.12;94.01;99585.66;5026299;28;20514;-71
2022/11/18 02:05:35;;;;;;;11.23;4.40;;;;;;;4.95;94.07;99594.00;5009461;28;20534;-71
2022/11/18 02:08:01;;;;;;;7.60;4.22;;;;;;;4.97;94.49;99599.00;5023241;28;20041;-71
2022/11/18 02:10:27;;;;;;;10.25;4.50;;;;;;;5.05;94.32;99598.06;5014437;28;20101;-71
2022/11/18 02:12:54;;;;;;;9.15;4.15;;;;;;;5.06;93.41;99592.38;5011021;28;20073;-71
2022/11/18 02:15:31;;;;;;;8.15;3.75;;;;;;;5.07;93.98;99599.25;5026417;28;20046;-71
2022/11/18 02:18:05;;;;;;;12.20;4.40;;;;;;;5.07;93.90;99595.81;5012301;28;20039;-71
2022/11/18 02:20:40;;;;;;;7.80;3.97;;;;;;;5.09;94.63;99596.25;5011311;28;20037;-71
2022/11/18 02:23:54;;;;;;;10.60;4.20;;;;;;;4.99;93.63;99588.75;5008368;28;20124;-71
2022/11/18 02:26:41;;;;;;;7.47;4.47;;;;;;;4.91;94.79;99595.81;5002303;28;20114;-71
2022/11/18 02:29:10;;;;;;;11.30;4.93;;;;;;;5.00;93.86;99595.63;5008410;28;20026;-71
2022/11/18 02:31:53;;;;;;;7.85;4.05;;;;;;;4.91;94.67;99593.13;5005571;28;20037;-71
2022/11/18 02:34:44;;;;;;;11.13;4.20;;;;;;;4.90;94.73;99596.13;5031166;28;20038;-71
2022/11/18 02:37:36;;;;;;;7.07;3.72;;;;;;;5.03;95.21;99600.28;4970951;28;20106;-71
2022/11/18 02:40:33;;;;;;;14.32;3.58;;;;;;;4.97;93.67;99586.44;4956246;28;20097;-71
2022/11/18 02:43:03;;;;;;;8.88;4.03;;;;;;;5.09;93.50;99591.66;4969366;28;20050;-71
2022/11/18 02:45:50;;;;;;;9.55;4.03;;;;;;;5.00;93.68;99603.63;4976074;28;20039;-71
2022/11/18 02:48:18;;;;;;;7.07;3.47;;;;;;;4.74;93.91;99598.81;4890096;29;20414;-71
2022/11/18 02:50:45;;;;;;;4.90;3.05;;;;;;;4.76;93.95;99601.91;4892420;29;20044;-71
2022/11/18 02:53:15;;;;;;;11.63;4.85;;;;;;;4.94;93.39;99611.13;4894345;29;20485;-71
2022/11/18 02:55:43;;;;;;;8.98;4.20;;;;;;;5.05;93.46;99620.16;4898186;29;20747;-71
2022/11/18 02:58:10;;;;;;;9.55;4.47;;;;;;;5.07;92.99;99617.91;4899037;29;20039;-71
2022/11/18 03:00:36;;;;;;;10.82;5.00;;;;;;;4.94;92.56;99615.66;4894413;29;20044;-71
2022/11/18 03:03:31;;;;;;;8.43;3.67;;;;;;;4.76;93.41;99615.22;4887877;29;20104;-71
2022/11/18 03:06:03;;;;;;;6.03;3.67;;;;;;;4.74;93.93;99620.13;4900924;29;20063;-71
2022/11/18 03:08:52;;;;;;;7.95;4.25;;;;;;;4.79;94.13;99621.75;4899744;29;20049;-71
2022/11/18 03:11:28;;;;;;;9.50;4.75;;;;;;;4.92;93.88;99624.00;4857659;29;20056;-71
2022/11/18 03:14:12;;;;;;;5.75;3.42;;;;;;;5.00;93.35;99628.41;4924717;29;20075;-71
2022/11/18 03:16:50;;;;;;;8.18;3.22;;;;;;;5.10;92.80;99627.91;4934317;29;20520;-71
2022/11/18 03:19:36;;;;;;;8.52;4.32;;;;;;;4.93;93.21;99625.59;4937490;29;20183;-71
2022/11/18 03:22:18;;;;;;;7.90;3.35;;;;;;;5.02;92.88;99628.84;4923559;29;20106;-71
2022/11/18 03:24:52;;;;;;;7.60;3.55;;;;;;;5.00;93.56;99628.41;4932889;28;20057;-71
2022/11/18 03:27:30;;;;;;;7.00;3.15;;;;;;;5.08;92.96;99626.69;5004448;28;20129;-71
2022/11/18 03:30:03;;;;;;;11.57;4.50;;;;;;;5.02;93.41;99630.75;5010782;28;20072;-71
2022/11/18 03:32:32;;;;;;;6.43;3.30;;;;;;;5.04;92.77;99631.16;5011531;28;20038;-71
2022/11/18 03:35:05;;;;;;;6.80;3.28;;;;;;;4.93;92.63;99638.13;5022642;28;20029;-71
2022/11/18 03:37:33;;;;;;;11.35;5.82;;;;;;;4.99;92.26;99645.56;4998046;28;20034;-72
2022/11/18 03:40:10;;;;;;;7.07;3.50;;;;;;;5.01;93.32;99646.00;5007960;28;20472;-71
2022/11/18 03:42:48;;;;;;;6.32;3.42;;;;;;;5.08;92.81;99651.50;5010386;28;20061;-71
2022/11/18 03:45:24;;;;;;;10.73;4.88;;;;;;;5.00;92.32;99644.44;4997347;28;20107;-71
2022/11/18 03:47:57;;;;;;;7.50;3.78;;;;;;;4.95;92.46;99647.34;5016495;28;20083;-71
2022/11/18 03:50:34;;;;;;;8.82;4.30;;;;;;;4.86;92.87;99646.72;5021266;28;20026;-71
2022/11/18 03:53:01;;;;;;;6.47;3.63;;;;;;;4.93;92.72;99651.47;5006559;28;20068;-71
2022/11/18 03:55:34;;;;;;;9.43;4.35;;;;;;;4.87;93.77;99650.16;5000582;28;20172;-71
2022/11/18 03:58:09;;;;;;;10.10;4.57;;;;;;;5.00;93.11;99651.66;5008004;28;20042;-71
2022/11/18 04:00:42;;;;;;;7.95;4.03;;;;;;;5.01;93.11;99659.31;5004913;28;20022;-71
2022/11/18 04:03:09;;;;;;;7.70;3.47;;;;;;;5.05;93.13;99665.50;5006985;28;20029;-71
2022/11/18 04:05:40;;;;;;;8.77;3.85;;;;;;;5.09;92.40;99658.38;5004123;28;20069;-71
2022/11/18 04:08:12;;;;;;;13.27;4.03;;;;;;;5.07;92.43;99673.94;5004865;28;20091;-72
2022/11/18 04:10:43;;;;;;;5.15;2.85;;;;;;;5.09;91.79;99671.72;5014810;28;20536;-71
2022/11/18 04:13:17;;;;;;;9.25;4.57;;;;;;;4.92;91.95;99680.03;5007554;28;20026;-71
2022/11/18 04:15:42;;;;;;;6.43;3.17;;;;;;;4.92;93.06;99677.34;5002388;28;20038;-71
2022/11/18 04:18:09;;;;;;;7.30;3.78;;;;;;;4.90;92.86;99682.25;5003216;28;20049;-71
2022/11/18 04:20:36;;;;;;;8.00;4.05;;;;;;;4.99;91.96;99682.13;5003023;28;20552;-71
2022/11/18 04:23:03;;;;;;;8.13;4.00;;;;;;;4.95;91.75;99690.03;5003686;28;20054;-71
2022/11/18 04:25:29;;;;;;;7.57;3.72;;;;;;;4.91;92.50;99689.16;5004804;28;20030;-71
2022/11/18 04:27:54;;;;;;;7.57;4.40;;;;;;;4.99;92.31;99682.91;5009298;28;20049;-71
2022/11/18 04:30:20;;;;;;;9.07;3.78;;;;;;;5.00;92.23;99683.66;5006742;28;20026;-71
2022/11/18 04:32:46;;;;;;;6.57;2.97;;;;;;;4.91;92.02;99683.03;5009197;28;20521;-71
2022/11/18 04:35:13;;;;;;;9.07;4.28;;;;;;;4.93;92.16;99688.81;5007874;28;20046;-71
2022/11/18 04:37:38;;;;;;;9.35;4.50;;;;;;;4.97;92.26;99689.69;4995442;28;20037;-71
2022/11/18 04:40:04;;;;;;;8.45;4.43;;;;;;;4.76;92.10;99695.22;5002831;28;20416;-71
2022/11/18 04:42:29;;;;;;;8.43;4.60;;;;;;;4.85;91.99;99692.41;5009859;28;20046;-71
2022/11/18 04:44:55;;;;;;;8.40;4.40;;;;;;;4.78;92.12;99700.97;5025325;28;20425;-71
2022/11/18 04:47:20;;;;;;;7.68;4.03;;;;;;;4.67;92.54;99699.13;5006667;28;20037;-71
2022/11/18 04:49:46;;;;;;;12.60;4.53;;;;;;;4.68;92.90;99698.03;5016084;28;20066;-72
2022/11/18 04:52:11;;;;;;;11.48;4.55;;;;;;;4.70;93.32;99701.13;5006794;28;20038;-71
2022/11/18 04:54:37;;;;;;;8.70;3.65;;;;;;;4.72;93.00;99694.34;5009835;28;20522;-71
2022/11/18 04:57:02;;;;;;;7.82;3.35;;;;;;;4.81;91.29;99705.63;5001383;28;20034;-71
2022/11/18 04:59:29;;;;;;;7.47;4.18;;;;;;;4.78;92.08;99700.22;4973054;28;20026;-71
2022/11/18 05:01:55;;;;;;;9.50;4.53;;;;;;;4.66;92.79;99710.91;4964465;28;20176;-71
2022/11/18 05:04:27;;;;;;;9.77;5.45;;;;;;;4.76;92.41;99716.56;4955314;28;20490;-71
2022/11/18 05:06:53;;;;;;;8.00;3.97;;;;;;;4.72;91.84;99713.00;4932576;28;20036;-71
2022/11/18 05:09:18;;;;;;;11.27;4.95;;;;;;;4.75;92.11;99712.31;4957993;28;20483;-71
2022/11/18 05:14:29;;;;;;;10.27;5.03;;;;;;;4.67;91.79;99726.56;5006738;28;20434;-71
2022/11/18 05:16:56;;;;;;;10.80;3.10;;;;;;;4.83;91.20;99734.63;5009528;28;20033;-72
2022/11/18 05:19:22;;;;;;;7.50;4.35;;;;;;;4.54;91.99;99733.84;5004677;28;20033;-71
2022/11/18 05:21:48;;;;;;;12.13;5.13;;;;;;;4.55;92.38;99734.59;5012616;28;20092;-71
2022/11/18 05:24:14;;;;;;;10.25;5.22;;;;;;;4.50;92.48;99732.94;5013673;28;20025;-71
2022/11/18 05:26:40;;;;;;;10.93;4.47;;;;;;;4.34;92.87;99745.41;4992223;28;20038;-71
2022/11/18 05:29:05;;;;;;;10.30;5.22;;;;;;;4.46;93.05;99737.41;5010853;28;20042;-72
2022/11/18 05:31:31;;;;;;;8.88;4.53;;;;;;;4.45;92.88;99746.50;5015241;28;20037;-72
2022/11/18 05:33:56;;;;;;;12.23;4.55;;;;;;;4.68;92.77;99754.78;5002241;28;20046;-71
2022/11/18 05:36:22;;;;;;;9.73;5.35;;;;;;;4.59;92.73;99756.78;5017552;28;20072;-72
2022/11/18 05:38:47;;;;;;;8.88;4.40;;;;;;;4.56;92.78;99765.47;5012403;28;20121;-71
2022/11/18 05:43:58;;;;;;;11.07;4.13;;;;;;;4.63;92.80;99765.66;5009147;28;20041;-71
2022/11/18 05:46:23;;;;;;;9.88;4.22;;;;;;;4.73;92.22;99775.88;5005403;28;20045;-71
2022/11/18 05:48:49;;;;;;;7.80;4.55;;;;;;;4.58;91.94;99764.03;5011787;28;20068;-70
2022/11/18 05:51:15;;;;;;;9.05;4.13;;;;;;;4.47;92.04;99768.25;5008398;28;20037;-71
2022/11/18 05:53:40;;;;;;;11.55;5.47;;;;;;;4.40;92.04;99772.59;4995759;28;20038;-71
2022/11/18 05:56:15;;;;;;;11.90;4.88;;;;;;;4.36;92.69;99785.03;5020713;28;20076;-71
2022/11/18 05:58:40;;;;;;;13.75;4.13;;;;;;;4.46;92.22;99779.25;5008613;28;20121;-71
2022/11/18 06:01:10;;;;;;;11.55;4.90;;;;;;;4.35;92.89;99788.84;5001375;28;20566;-71
2022/11/18 06:03:39;;;;;;;12.63;4.80;;;;;;;4.33;93.09;99788.38;5011847;28;20033;-71
2022/11/18 06:06:06;;;;;;;8.18;4.43;;;;;;;4.54;92.06;99791.69;5019643;28;20137;-71
2022/11/18 06:08:38;;;;;;;9.65;4.35;;;;;;;4.58;92.08;99796.03;5007332;28;20064;-71
2022/11/18 06:11:06;;;;;;;;;;;;;;;4.58;92.44;99788.03;4994573;28;20038;-71
2022/11/18 06:13:37;;;;;;;12.35;4.50;;;;;;;4.34;92.33;99805.91;5002268;28;19924;-71
2022/11/18 06:16:03;;;;;;;10.13;4.25;;;;;;;4.39;91.75;99793.13;5012433;28;20669;-71
2022/11/18 06:18:31;;;;;;;12.88;5.35;;;;;;;4.08;93.31;99802.81;5003276;28;20037;-71
2022/11/18 06:21:03;;;;;;;11.23;4.90;;;;;;;4.25;93.23;99807.91;5004452;28;20026;-71
2022/11/18 06:23:32;;;;;;;9.18;4.68;;;;;;;4.22;93.31;99819.25;5001053;28;20495;-71
2022/11/18 06:25:58;;;;;;;13.65;4.40;;;;;;;4.19;93.79;99806.59;5005900;28;20100;-71
2022/11/18 06:28:25;;;;;;;10.13;4.65;;;;;;;4.27;93.16;99819.81;5007873;28;20026;-71
2022/11/18 06:30:51;;;;;;;11.70;4.53;;;;;;;4.30;92.53;99823.69;5009012;28;20044;-71
2022/11/18 06:33:16;;;;;;;13.18;5.38;;;;;;;4.17;93.50;99814.13;4994592;28;20407;-71
2022/11/18 06:35:42;;;;;;;13.15;6.75;;;;;;;4.20;93.37;99824.91;4996543;28;20398;-70
2022/11/18 06:38:08;;;;;;;13.45;5.78;;;;;;;4.40;92.50;99832.00;5010822;28;20083;-70
2022/11/18 06:40:34;;;;;;;9.60;5.00;;;;;;;4.34;92.56;99838.66;5004293;28;20096;-70
2022/11/18 06:48:33;;;;;;;12.68;4.97;;;;;;;4.23;92.87;99847.44;4999304;28;20065;-71
2022/11/18 06:50:58;;;;;;;11.32;5.90;;;;;;;4.25;93.78;99847.88;4997618;28;20117;-71
2022/11/18 06:53:23;;;;;;;13.50;5.13;;;;;;;4.41;92.51;99851.44;4997374;28;20034;-70
2022/11/18 06:55:49;;;;;;;7.53;4.32;;;;;;;4.23;91.88;99852.75;5006415;28;20042;-70
2022/11/18 06:58:14;;;;;;;8.98;5.25;;;;;;;4.15;91.91;99853.63;4993281;28;20125;-71
2022/11/18 07:00:40;;;;;;;12.02;4.60;;;;;;;4.25;92.35;99850.56;5030098;28;20027;-70
2022/11/18 07:03:05;;;;;;;11.05;4.40;;;;;;;4.12;92.28;99856.97;5013208;28;20439;-70
2022/11/18 07:05:30;;;;;;;12.95;5.28;;;;;;;4.17;91.60;99856.75;4999609;28;20046;-70
2022/11/18 07:07:56;;;;;;;9.38;5.07;;;;;;;4.06;91.79;99866.28;5003182;28;20044;-70
2022/11/18 07:10:21;;;;;;;11.85;5.88;;;;;;;3.96;92.32;99861.38;5010757;28;20014;-70
2022/11/18 07:12:47;;;;;;;10.85;4.75;;;;;;;3.93;91.91;99878.03;5010335;28;20104;-70
2022/11/18 07:15:12;;;;;;;15.90;4.18;;;;;;;4.09;91.86;99879.72;5002360;28;20088;-70
2022/11/18 07:17:38;;;;;;;8.65;4.22;;;;;;;4.15;92.18;99874.94;5002440;28;20500;-70
2022/11/18 07:20:03;;;;;;;13.18;5.78;;;;;;;4.33;91.16;99877.09;5010961;28;20494;-70
2022/11/18 07:22:29;;;;;;;10.73;4.72;;;;;;;4.31;91.75;99876.66;5010262;28;20304;-70
2022/11/18 07:24:54;;;;;;;7.15;4.50;;;;;;;4.46;90.93;99880.53;5007962;28;20045;-70
2022/11/18 07:27:20;;;;;;;8.32;4.47;;;;;;;4.45;90.50;99893.06;5011826;28;20516;-69
2022/11/18 07:29:45;;;;;;;9.68;5.18;;;;;;;4.33;91.23;99885.09;5009725;28;20498;-70
2022/11/18 07:32:10;;;;;;;13.43;4.65;;;;;;;4.24;91.16;99888.97;5021465;28;20517;-70
2022/11/18 07:34:36;;;;;;;8.93;3.70;;;;;;;4.28;90.87;99884.50;5008193;28;20096;-70
2022/11/18 07:37:01;;;;;;;8.55;5.18;;;;;;;4.36;90.71;99888.97;5010113;28;20546;-70
2022/11/18 07:39:27;;;;;;;12.23;5.38;;;;;;;4.23;90.37;99892.72;5002815;28;20022;-70
2022/11/18 07:41:52;;;;;;;7.22;4.10;;;;;;;4.26;90.11;99897.38;5008126;28;20077;-71
2022/11/18 07:44:18;;;;;;;11.02;4.68;;;;;;;4.29;90.09;99908.19;5001600;28;20525;-70
2022/11/18 07:46:43;;;;;;;8.20;4.22;;;;;;;4.26;90.33;99908.81;5000566;28;20038;-70
2022/11/18 07:49:10;;;;;;;9.45;3.72;;;;;;;4.41;89.93;99910.09;5000305;28;20116;-70
2022/11/18 07:51:38;;;;;;;7.28;4.18;;;;;;;4.24;89.59;99921.69;5001701;28;20052;-70
2022/11/18 07:54:08;;;;;;;11.50;5.03;;;;;;;4.06;89.94;99919.56;5007769;28;20087;-70
2022/11/18 07:56:33;;;;;;;9.95;5.38;;;;;;;4.28;89.49;99929.81;5010675;28;20040;-71
2022/11/18 07:58:58;;;;;;;12.13;4.55;;;;;;;4.15;88.95;99936.22;5008467;28;20033;-70
2022/11/18 08:01:29;;;;;;;11.73;3.25;;;;;;;4.20;89.38;99936.78;5007695;28;20030;-71
2022/11/18 08:03:55;;;;;;;14.23;4.80;;;;;;;4.28;89.31;99935.13;5010675;28;20044;-70
2022/11/18 08:06:21;;;;;;;7.68;4.00;;;;;;;4.23;88.85;99938.81;5005719;28;20517;-70
2022/11/18 08:08:47;;;;;;;8.00;4.20;;;;;;;4.14;88.75;99942.66;5008638;28;20030;-70
2022/11/18 08:11:18;;;;;;;11.57;4.00;;;;;;;4.20;88.32;99947.44;5007798;28;20029;-71
2022/11/18 08:13:43;;;;;;;;;;;;;;;4.16;87.75;99935.13;5011061;28;20037;-69
2022/11/18 08:16:21;;;;;;;5.80;2.95;;;;;;;4.20;88.00;99949.34;5016205;28;19937;-70
2022/11/18 08:18:47;;;;;;;8.25;4.00;;;;;;;4.22;88.24;99949.81;5003868;28;20034;-70
2022/11/18 08:21:13;;;;;;;10.32;5.35;;;;;;;4.24;87.28;99952.91;5007038;28;20032;-70
2022/11/18 08:23:39;;;;;;;12.02;4.63;;;;;;;4.30;87.57;99975.56;5007679;28;20088;-70
2022/11/18 08:26:12;;;;;;;8.75;4.28;;;;;;;4.29;87.74;99960.69;5009768;28;20033;-70
2022/11/18 08:28:37;;;;;;;7.32;4.30;;;;;;;4.23;87.04;99959.34;5003854;28;20144;-70
2022/11/18 08:31:18;;;;;;;9.45;4.07;;;;;;;4.22;86.98;99968.44;5006266;28;20527;-70
2022/11/18 08:33:44;;;;;;;7.85;3.92;;;;;;;4.27;87.33;99957.56;5005569;28;20105;-70
2022/11/18 08:36:15;;;;;;;13.30;4.70;;;;;;;4.31;86.92;99966.47;5022782;28;20044;-70
2022/11/18 08:38:41;;;;;;;10.52;4.70;;;;;;;4.47;85.95;99973.47;5018004;28;20097;-70
2022/11/18 08:41:06;;;;;;;11.68;4.95;;;;;;;4.36;86.35;99976.91;5024500;28;20030;-70
2022/11/18 08:43:35;;;;;;;6.43;3.90;;;;;;;4.25;86.46;99979.22;4999601;28;20046;-71
2022/11/18 08:46:00;;;;;;;9.30;4.22;;;;;;;4.27;85.95;99976.22;5004085;28;20121;-71
2022/11/18 08:48:26;;;;;;;12.07;4.93;;;;;;;4.34;86.40;99984.44;5020421;28;20054;-70
2022/11/18 08:50:52;;;;;;;8.45;4.35;;;;;;;4.41;86.78;99984.69;4992385;28;20018;-70
2022/11/18 08:53:17;;;;;;;7.28;4.45;;;;;;;4.42;85.95;99988.91;4999469;28;20037;-70
2022/11/18 08:55:42;;;;;;;7.20;3.83;;;;;;;4.51;86.08;99995.72;5006467;28;20099;-70
2022/11/18 08:58:08;;;;;;;8.48;4.55;;;;;;;4.16;84.99;99999.06;5013251;28;20036;-70
2022/11/18 09:00:33;;;;;;;10.18;5.05;;;;;;;4.20;85.71;99989.31;5001675;28;20506;-69
2022/11/18 09:02:58;;;;;;;11.10;4.32;;;;;;;4.29;86.11;99992.66;5009651;28;20037;-70
2022/11/18 09:05:24;;;;;;;15.57;5.57;;;;;;;4.33;86.10;99989.03;5011978;28;20228;-69
2022/11/18 09:07:49;;;;;;;13.00;4.88;;;;;;;4.36;85.72;99995.56;5011457;28;20109;-69
2022/11/18 09:10:15;;;;;;;10.70;4.65;;;;;;;4.51;85.37;100000.25;5006469;28;20505;-70
2022/11/18 09:12:40;;;;;;;7.32;4.25;;;;;;;4.50;84.83;100004.03;5008636;28;20108;-70
2022/11/18 09:15:07;;;;;;;8.35;3.85;;;;;;;4.42;84.64;100010.22;5001633;28;20040;-69
2022/11/18 09:17:33;;;;;;;9.45;4.40;;;;;;;4.12;85.19;100019.47;5007622;28;20037;-69
2022/11/18 09:19:58;;;;;;;7.22;3.65;;;;;;;4.34;85.06;100019.88;5004890;28;21013;-69
2022/11/18 09:22:25;;;;;;;12.30;5.10;;;;;;;4.38;85.12;100014.66;5007129;28;20406;-69
2022/11/18 09:24:50;;;;;;;8.93;3.53;;;;;;;4.37;84.95;100023.78;5024100;28;20060;-69
2022/11/18 09:27:16;;;;;;;8.38;4.32;;;;;;;4.36;85.16;100028.31;5001447;28;20029;-69
2022/11/18 09:29:41;;;;;;;14.55;4.30;;;;;;;4.37;85.46;100027.22;5008131;28;20117;-69
2022/11/18 09:32:07;;;;;;;9.13;4.45;;;;;;;4.51;85.39;100033.03;5010224;28;20034;-70
2022/11/18 09:34:33;;;;;;;9.50;4.50;;;;;;;4.61;82.33;100031.81;5017388;28;20065;-70
2022/11/18 09:36:58;;;;;;;11.48;4.43;;;;;;;4.51;83.32;100034.91;5001342;28;20049;-69
2022/11/18 09:39:24;;;;;;;11.20;4.88;;;;;;;4.31;84.26;100041.88;5001284;28;20022;-69
2022/11/18 09:42:38;;;;;;;11.70;4.63;;;;;;;4.26;83.83;100043.91;4995441;28;20120;-70
2022/11/18 09:45:33;;;;;;;8.80;4.03;;;;;;;4.51;83.39;100053.56;4972792;28;20137;-69
2022/11/18 09:48:05;;;;;;;5.75;3.15;;;;;;;4.69;83.51;100052.28;5004037;28;20049;-69
2022/11/18 09:50:31;;;;;;;5.65;3.58;;;;;;;4.66;82.67;100050.28;5002507;28;20436;-69
2022/11/18 09:53:08;;;;;;;4.13;2.90;;;;;;;4.69;82.39;100060.28;5007525;28;20045;-69
2022/11/18 09:55:37;;;;;;;6.20;3.60;;;;;;;4.67;82.12;100061.72;5008699;28;20046;-69
2022/11/18 09:58:03;;;;;;;7.05;3.97;;;;;;;4.70;81.50;100064.53;5008387;28;20120;-70
2022/11/18 10:00:29;;;;;;;9.27;4.90;;;;;;;4.73;82.18;100065.72;5010227;28;20553;-70
2022/11/18 10:03:03;;;;;;;6.07;3.40;;;;;;;4.81;81.21;100062.19;5013188;28;20053;-70
2022/11/18 10:05:47;;;;;;;6.72;3.72;;;;;;;4.69;81.50;100064.84;5005898;28;20109;-70
2022/11/18 10:08:31;;;;;;;5.03;3.08;;;;;;;4.60;82.50;100070.28;4977072;28;20034;-70
2022/11/18 10:11:04;;;;;;;7.57;3.33;;;;;;;4.53;82.32;100072.66;5016413;28;20552;-70
2022/11/18 10:14:05;;;;;;;5.63;3.40;;;;;;;4.51;82.67;100077.56;5022218;28;20038;-69
2022/11/18 10:16:42;;;;;;;16.23;3.40;;;;;;;4.67;82.68;100083.03;4999139;28;20524;-70
2022/11/18 10:19:32;;;;;;;5.38;3.38;;;;;;;4.52;82.18;100081.78;4997223;28;20529;-69
2022/11/18 10:22:37;;;;;;;5.95;3.13;;;;;;;4.64;82.52;100097.03;5003096;28;20033;-70
2022/11/18 10:25:02;;;;;;;4.45;3.00;;;;;;;4.57;82.07;100090.34;4998614;28;20054;-70
2022/11/18 10:27:39;;;;;;;4.38;2.33;;;;;;;4.70;81.99;100109.06;4997369;28;20034;-70
2022/11/18 10:30:12;;;;;;;8.65;3.45;;;;;;;4.73;80.83;100100.41;5014820;28;20053;-70
2022/11/18 10:33:02;;;;;;;10.82;4.10;;;;;;;4.68;80.22;100101.41;5009918;28;20041;-70
2022/11/18 10:35:36;;;;;;;5.15;2.63;;;;;;;4.57;80.63;100094.91;5012460;28;20029;-70
2022/11/18 10:38:06;;;;;;;4.38;2.83;;;;;;;4.60;80.53;100104.94;5016016;28;20596;-70
2022/11/18 10:40:33;;;;;;;5.82;2.90;;;;;;;4.72;79.90;100101.53;5009551;28;20036;-70
2022/11/18 10:42:59;;;;;;;6.82;2.92;;;;;;;4.82;80.30;100109.88;4995396;28;20052;-70
2022/11/18 10:45:26;;;;;;;5.18;2.78;;;;;;;4.84;80.32;100102.31;5007756;28;20038;-69
2022/11/18 10:48:13;;;;;;;6.13;2.90;;;;;;;4.70;79.50;100101.84;5005572;28;20095;-70
2022/11/18 10:50:43;;;;;;;5.53;2.67;;;;;;;4.76;79.36;100107.75;4998791;28;20092;-69
2022/11/18 10:53:27;;;;;;;10.38;3.50;;;;;;;5.09;78.78;100114.59;4997161;28;20042;-70
2022/11/18 10:56:01;;;;;;;3.92;1.90;;;;;;;4.87;78.93;100114.22;5016906;28;20406;-70
2022/11/18 10:58:29;;;;;;;4.63;2.97;;;;;;;4.62;78.01;100113.38;4995111;28;20538;-69
2022/11/18 11:01:20;;;;;;;5.75;2.60;;;;;;;4.66;78.13;100113.50;5005391;28;20485;-70
2022/11/18 11:04:14;;;;;;;5.13;2.50;;;;;;;4.58;79.36;100120.47;5002931;28;20378;-70
2022/11/18 11:06:39;;;;;;;3.22;2.40;;;;;;;4.63;79.42;100116.81;5001141;28;20041;-70
2022/11/18 11:09:08;;;;;;;5.18;2.88;;;;;;;4.54;78.88;100117.69;5001439;28;20394;-70
2022/11/18 11:11:42;;;;;;;8.10;2.55;;;;;;;4.63;79.20;100122.91;5004737;28;20122;-69
2022/11/18 11:14:19;;;;;;;3.45;2.63;;;;;;;4.81;79.24;100121.66;5002824;28;20402;-69
2022/11/18 11:17:09;;;;;;;3.10;2.00;;;;;;;4.65;77.47;100123.38;5025420;28;20038;-70
2022/11/18 11:20:14;;;;;;;4.28;3.03;;;;;;;4.78;77.26;100127.63;5009779;28;20083;-69
2022/11/18 11:22:40;;;;;;;6.15;2.80;;;;;;;4.78;77.29;100135.63;5004334;28;20045;-69
2022/11/18 11:25:18;;;;;;;6.60;3.15;;;;;;;4.95;76.97;100132.81;5003731;28;20026;-69
2022/11/18 11:27:58;;;;;;;4.20;2.08;;;;;;;4.85;76.50;100133.22;4995362;28;20587;-69
2022/11/18 11:30:23;;;;;;;3.45;2.10;;;;;;;4.77;76.75;100131.41;5000108;28;20611;-70
2022/11/18 11:32:58;;;;;;;5.57;2.25;;;;;;;4.84;76.53;100141.56;5003756;28;20041;-70
2022/11/18 11:35:45;;;;;;;4.65;2.28;;;;;;;5.00;76.58;100143.25;5002516;28;20486;-70
2022/11/18 11:38:22;;;;;;;3.35;2.05;;;;;;;5.08;75.76;100145.06;5015896;28;20051;-70
2022/11/18 11:41:00;;;;;;;3.20;2.33;;;;;;;4.91;74.56;100147.91;5006018;28;20527;-70
2022/11/18 11:43:31;;;;;;;4.55;2.80;;;;;;;4.85;74.71;100146.56;5004477;28;20037;-70
2022/11/18 11:46:05;;;;;;;8.80;2.85;;;;;;;4.87;75.21;100151.56;5004559;28;20263;-70
2022/11/18 11:48:54;;;;;;;8.20;2.15;;;;;;;4.83;73.88;100158.66;5008422;28;20065;-70
2022/11/18 11:51:47;;;;;;;6.60;2.53;;;;;;;5.10;72.46;100166.88;5000692;28;20022;-69
2022/11/18 11:54:35;;;;;;;8.70;3.03;;;;;;;4.88;72.70;100158.47;5007504;28;20055;-69
2022/11/18 11:57:35;;;;;;;3.70;2.45;;;;;;;4.87;73.55;100154.22;5005733;28;20120;-70
2022/11/18 12:00:04;;;;;;;5.53;2.90;;;;;;;4.74;73.63;100149.97;4987111;28;20568;-70
2022/11/18 12:02:52;;;;;;;4.10;2.17;;;;;;;4.93;74.27;100161.72;4998688;28;20045;-69
2022/11/18 12:05:33;;;;;;;4.15;2.20;;;;;;;4.99;73.71;100171.06;5006749;28;20041;-69
2022/11/18 12:08:10;;;;;;;4.30;2.90;;;;;;;5.09;74.50;100173.28;5009936;28;20075;-70
2022/11/18 12:10:39;;;;;;;5.40;2.08;;;;;;;5.19;73.68;100164.88;5009901;28;20572;-69